Terminal Aerodrome Forecast
Issued by NWS Mt. Holly, NJ

Home | Current Version | Previous Version | Text Only | Print | Product List | Glossary On
Versions: 1 2 3 4 5 6 7 8 9 10 11 12 13 14 15 16 17 18 19 20 21 22 23 24 25 26 27 28 29 30 31 32 33 34 35 36 37 38 39 40 41 42 43 44 45 46 47 48 49 50
000
FTAK31 PANC 191141
TAFABE
TAF
PABE 191141Z 1912/2012 27026G38KT 4SM -SHSN BR BKN012 BKN020 OVC025
     FM191900 29025G38KT 1/2SM SHSN BKN003 OVC008
     FM200200 34020G30KT 2SM -SHSN BR SCT003 BKN015 OVC025=

USA.gov is the U.S. government's official web portal to all federal, state and local government web resources and services.